Aviation Digital Data Service (ADDS)

Output produced by METARs form (1214 UTC 24 November 2014)
found at http://www.aviationweather.gov/adds/metars/
 
KDFW 241124Z 2412/2518 30011KT P6SM SKC 
     FM250000 26005KT P6SM SCT250 
     FM250900 34005KT P6SM SCT250